Time;durP1;ratioP1;P1;durP2;ratioP2;P2;SDS_P1;SDS_P2;PMS_P1;PMS_P2;Temp;Humidity;BMP_temperature;BMP_pressure;BME280_temperature;BME280_humidity;BME280_pressure;Samples;Min_cycle;Max_cycle;Signal;HPM_P1;HPM_P2
2023/02/20 00:00:44;;;;;;;6.33;0.60;;;;;;;-142.37;100.00;59669.53;5093105;28;20024;-61
2023/02/20 00:03:12;;;;;;;3.70;0.40;;;;;;;-142.37;100.00;59669.53;5091444;28;20032;-59
2023/02/20 00:05:38;;;;;;;7.03;0.67;;;;;;;-142.37;100.00;59669.53;5091409;28;20032;-61
2023/02/20 00:08:05;;;;;;;1.93;0.20;;;;;;;-142.37;100.00;59669.53;5092759;28;20054;-60
2023/02/20 00:10:30;;;;;;;0.87;0.23;;;;;;;-142.37;100.00;59669.53;5092825;28;20024;-60
2023/02/20 00:12:56;;;;;;;1.27;0.83;;;;;;;-142.37;100.00;59669.53;5091451;28;20035;-59
2023/02/20 00:15:22;;;;;;;1.17;0.17;;;;;;;-142.37;100.00;59669.53;5091302;28;20075;-60
2023/02/20 00:17:48;;;;;;;1.00;0.37;;;;;;;-142.37;100.00;59669.53;5092762;28;20032;-59
2023/02/20 00:20:22;;;;;;;2.00;0.30;;;;;;;-142.37;100.00;59669.53;5091162;28;20024;-59
2023/02/20 00:22:49;;;;;;;1.93;0.37;;;;;;;-142.37;100.00;59669.53;5092447;28;20392;-60
2023/02/20 00:25:16;;;;;;;4.63;0.40;;;;;;;-142.37;100.00;59669.53;5092384;28;20031;-60
2023/02/20 00:27:43;;;;;;;7.57;0.30;;;;;;;-142.37;100.00;59669.53;5092477;28;20024;-61
2023/02/20 00:30:20;;;;;;;2.63;0.20;;;;;;;-142.37;100.00;59669.53;5092425;28;20429;-60
2023/02/20 00:32:48;;;;;;;2.27;0.30;;;;;;;-142.37;100.00;59669.53;5093110;28;20035;-61
2023/02/20 00:35:16;;;;;;;2.53;0.40;;;;;;;-142.37;100.00;59669.53;5095224;28;20028;-60
2023/02/20 00:37:42;;;;;;;1.83;0.27;;;;;;;-142.37;100.00;59669.53;5096782;28;20039;-59
2023/02/20 00:40:09;;;;;;;10.23;0.43;;;;;;;-142.37;100.00;59669.53;5095228;28;20024;-59
2023/02/20 00:42:35;;;;;;;3.87;0.30;;;;;;;-142.37;100.00;59669.53;5096590;28;20070;-60
2023/02/20 00:45:00;;;;;;;1.80;0.20;;;;;;;-142.37;100.00;59669.53;5096016;28;20052;-61
2023/02/20 00:47:27;;;;;;;2.77;0.30;;;;;;;-142.37;100.00;59669.53;5094892;28;20024;-59
2023/02/20 00:49:53;;;;;;;6.67;0.20;;;;;;;-142.37;100.00;59669.53;5094678;28;20024;-59
2023/02/20 00:52:18;;;;;;;2.37;0.40;;;;;;;-142.37;100.00;59669.53;5094873;28;20384;-62
2023/02/20 00:54:44;;;;;;;2.03;0.13;;;;;;;-142.37;100.00;59669.53;5095896;28;20028;-60
2023/02/20 00:57:10;;;;;;;0.63;0.27;;;;;;;-142.37;100.00;59669.53;5094901;28;20024;-60
2023/02/20 00:59:35;;;;;;;3.13;0.60;;;;;;;-142.37;100.00;59669.53;5094527;28;20374;-61
2023/02/20 01:02:01;;;;;;;1.87;0.10;;;;;;;-142.37;100.00;59669.53;5095838;28;20388;-60
2023/02/20 01:04:27;;;;;;;2.87;0.17;;;;;;;-142.37;100.00;59669.53;5094390;28;20514;-61
2023/02/20 01:06:52;;;;;;;4.73;0.20;;;;;;;-142.37;100.00;59669.53;5096574;28;20738;-61
2023/02/20 01:09:18;;;;;;;0.83;0.23;;;;;;;-142.37;100.00;59669.53;5096356;28;20024;-62
2023/02/20 01:11:44;;;;;;;3.10;0.37;;;;;;;-142.37;100.00;59669.53;5096851;28;20032;-62
2023/02/20 01:14:12;;;;;;;6.10;0.73;;;;;;;-142.37;100.00;59669.53;5096289;28;20081;-60
2023/02/20 01:16:44;;;;;;;2.27;0.33;;;;;;;-142.37;100.00;59669.53;5094640;28;20048;-60
2023/02/20 01:19:10;;;;;;;3.33;0.33;;;;;;;-142.37;100.00;59669.53;5094945;28;20380;-60
2023/02/20 01:21:35;;;;;;;1.60;0.13;;;;;;;-142.37;100.00;59669.53;5094405;28;20025;-61
2023/02/20 01:24:01;;;;;;;3.20;0.17;;;;;;;-142.37;100.00;59669.53;5095754;28;20032;-62
2023/02/20 01:26:28;;;;;;;3.20;0.50;;;;;;;-142.37;100.00;59669.53;5095848;28;20024;-60
2023/02/20 01:28:53;;;;;;;1.00;0.20;;;;;;;-142.37;100.00;59669.53;5095575;28;20464;-61
2023/02/20 01:31:19;;;;;;;4.67;0.30;;;;;;;-142.37;100.00;59669.53;5094954;28;20069;-61
2023/02/20 01:33:45;;;;;;;0.60;0.20;;;;;;;-142.37;100.00;59669.53;5094101;28;20027;-61
2023/02/20 01:36:10;;;;;;;0.70;0.23;;;;;;;-142.37;100.00;59669.53;5093841;28;20051;-59
2023/02/20 01:38:39;;;;;;;4.67;0.73;;;;;;;-142.37;100.00;59669.53;5095138;28;20081;-60
2023/02/20 01:41:05;;;;;;;3.20;0.40;;;;;;;-142.37;100.00;59669.53;5093698;28;20081;-59
2023/02/20 01:43:31;;;;;;;1.77;0.30;;;;;;;-142.37;100.00;59669.53;5094504;28;20108;-59
2023/02/20 01:46:28;;;;;;;1.93;0.23;;;;;;;-142.37;100.00;59669.53;5093981;28;20544;-59
2023/02/20 01:49:09;;;;;;;1.00;0.23;;;;;;;-142.37;100.00;59669.53;5093681;28;20031;-59
2023/02/20 01:51:43;;;;;;;3.37;0.47;;;;;;;-142.37;100.00;59669.53;5093438;28;20028;-60
2023/02/20 01:54:15;;;;;;;2.03;0.40;;;;;;;-142.37;100.00;59669.53;5094694;28;20070;-59
2023/02/20 01:56:44;;;;;;;2.47;0.40;;;;;;;-142.37;100.00;59669.53;5094888;28;20028;-60
2023/02/20 01:59:10;;;;;;;2.93;0.30;;;;;;;-142.37;100.00;59669.53;5094769;28;20031;-59
2023/02/20 02:01:37;;;;;;;1.27;0.10;;;;;;;-142.37;100.00;59669.53;5094604;28;20489;-59
2023/02/20 02:04:06;;;;;;;0.87;0.20;;;;;;;-142.37;100.00;59669.53;5093758;28;20027;-60
2023/02/20 02:06:36;;;;;;;2.97;0.53;;;;;;;-142.37;100.00;59669.53;5095039;28;20024;-59
2023/02/20 02:09:12;;;;;;;5.07;0.63;;;;;;;-142.37;100.00;59669.53;5094495;28;20040;-60
2023/02/20 02:11:38;;;;;;;4.63;0.70;;;;;;;-142.37;100.00;59669.53;5093083;28;20032;-60
2023/02/20 02:14:04;;;;;;;5.40;0.30;;;;;;;-142.37;100.00;59669.53;5094738;28;20093;-60
2023/02/20 02:16:57;;;;;;;0.90;0.60;;;;;;;-142.37;100.00;59669.53;5094513;28;20133;-60
2023/02/20 02:19:31;;;;;;;0.70;0.20;;;;;;;-142.37;100.00;59669.53;5093167;28;20089;-60
2023/02/20 02:22:24;;;;;;;2.13;0.25;;;;;;;-142.37;100.00;59669.53;5095783;28;20040;-65
2023/02/20 02:25:04;;;;;;;1.10;0.30;;;;;;;-142.37;100.00;59669.53;5095170;28;20092;-61
2023/02/20 02:27:58;;;;;;;2.40;0.30;;;;;;;-142.37;100.00;59669.53;5093691;28;20028;-59
2023/02/20 02:30:29;;;;;;;2.67;0.27;;;;;;;-142.37;100.00;59669.53;5095423;28;20024;-60
2023/02/20 02:33:10;;;;;;;2.35;0.20;;;;;;;-142.37;100.00;59669.53;5093901;28;20028;-59
2023/02/20 02:35:38;;;;;;;2.93;0.67;;;;;;;-142.37;100.00;59669.53;5093934;28;20484;-60
2023/02/20 02:38:30;;;;;;;2.77;0.40;;;;;;;-142.37;100.00;59669.53;5093657;28;20123;-61
2023/02/20 02:41:15;;;;;;;1.75;0.50;;;;;;;-142.37;100.00;59669.53;5093217;28;20028;-58
2023/02/20 02:43:53;;;;;;;3.72;1.02;;;;;;;-142.37;100.00;59669.53;5092773;28;20032;-60
2023/02/20 02:46:29;;;;;;;2.58;0.20;;;;;;;-142.37;100.00;59669.53;5093663;28;20036;-60
2023/02/20 02:49:21;;;;;;;6.17;1.07;;;;;;;-142.37;100.00;59669.53;5093747;28;20379;-60
2023/02/20 02:51:49;;;;;;;3.73;0.40;;;;;;;-142.37;100.00;59669.53;5082952;28;20459;-59
2023/02/20 02:54:25;;;;;;;1.67;0.30;;;;;;;-142.37;100.00;59669.53;5093472;28;20054;-60
2023/02/20 02:56:51;;;;;;;2.83;0.50;;;;;;;-142.37;100.00;59669.53;5091871;28;20441;-59
2023/02/20 02:59:24;;;;;;;3.17;0.70;;;;;;;-142.37;100.00;59669.53;5092045;28;20115;-60
2023/02/20 03:01:54;;;;;;;2.23;0.47;;;;;;;-142.37;100.00;59669.53;5092080;28;20028;-58
2023/02/20 03:04:29;;;;;;;1.37;0.30;;;;;;;-142.37;100.00;59669.53;5092333;28;20438;-61
2023/02/20 03:07:09;;;;;;;6.00;0.95;;;;;;;-142.37;100.00;59669.53;5093970;28;20083;-60
2023/02/20 03:09:44;;;;;;;2.53;0.20;;;;;;;-142.37;100.00;59669.53;5093927;28;20074;-60
2023/02/20 03:12:12;;;;;;;2.55;0.20;;;;;;;-142.37;100.00;59669.53;5092572;28;20042;-61
2023/02/20 03:17:44;;;;;;;4.90;0.30;;;;;;;-142.37;100.00;59669.53;5093568;28;20119;-60
2023/02/20 03:20:14;;;;;;;2.37;0.30;;;;;;;-142.37;100.00;59669.53;5093655;28;20032;-60
2023/02/20 03:23:03;;;;;;;1.57;0.20;;;;;;;-142.37;100.00;59669.53;5092045;28;20032;-60
2023/02/20 03:25:35;;;;;;;2.77;1.03;;;;;;;-142.37;100.00;59669.53;5092977;28;20031;-60
2023/02/20 03:28:09;;;;;;;5.13;0.20;;;;;;;-142.37;100.00;59669.53;5092958;28;20492;-60
2023/02/20 03:30:57;;;;;;;4.90;0.50;;;;;;;-142.37;100.00;59669.53;5093371;28;20114;-61
2023/02/20 03:45:11;;;;;;;1.67;0.25;;;;;;;-142.37;100.00;59669.53;5092924;28;20162;-60
2023/02/20 03:47:42;;;;;;;1.83;0.30;;;;;;;-142.37;100.00;59669.53;5093199;28;20028;-59
2023/02/20 03:50:11;;;;;;;4.18;0.50;;;;;;;-142.37;100.00;59669.53;5092863;28;20432;-60
2023/02/20 03:52:36;;;;;;;2.60;0.20;;;;;;;-142.37;100.00;59669.53;5091509;28;20149;-60
2023/02/20 03:55:03;;;;;;;1.40;0.10;;;;;;;-142.37;100.00;59669.53;5092667;28;20069;-60
2023/02/20 03:57:40;;;;;;;2.45;0.20;;;;;;;-142.37;100.00;59669.53;5091481;28;20024;-60
2023/02/20 04:00:29;;;;;;;10.77;1.88;;;;;;;-142.37;100.00;59669.53;5092753;28;20039;-61
2023/02/20 04:03:01;;;;;;;2.38;0.25;;;;;;;-142.37;100.00;59669.53;5091107;28;20035;-60
2023/02/20 04:05:34;;;;;;;2.10;0.32;;;;;;;-142.37;100.00;59669.53;5091517;28;20038;-59
2023/02/20 04:08:04;;;;;;;4.67;0.60;;;;;;;-142.37;100.00;59669.53;5093999;28;20069;-60
2023/02/20 04:10:38;;;;;;;3.38;0.57;;;;;;;-142.37;100.00;59669.53;5097295;28;20074;-60
2023/02/20 04:13:05;;;;;;;5.72;1.15;;;;;;;-142.37;100.00;59669.53;5095080;28;20297;-61
2023/02/20 04:15:32;;;;;;;3.63;0.40;;;;;;;-142.37;100.00;59669.53;5095656;28;20140;-61
2023/02/20 04:18:09;;;;;;;3.60;0.20;;;;;;;-142.37;100.00;59669.53;5097933;28;20020;-61
2023/02/20 04:20:36;;;;;;;8.48;0.43;;;;;;;-142.37;100.00;59669.53;5097621;28;20066;-60
2023/02/20 04:23:13;;;;;;;2.63;0.43;;;;;;;-142.37;100.00;59669.53;5095283;28;20392;-61
2023/02/20 04:26:09;;;;;;;6.70;0.40;;;;;;;-142.37;100.00;59669.53;5095499;28;20611;-61
2023/02/20 04:28:35;;;;;;;3.95;0.93;;;;;;;-142.37;100.00;59669.53;5096647;28;20067;-62
2023/02/20 04:31:02;;;;;;;1.95;0.20;;;;;;;-142.37;100.00;59669.53;5095783;28;20484;-67
2023/02/20 04:33:28;;;;;;;3.13;0.60;;;;;;;-142.37;100.00;59669.53;5096576;28;20115;-61
2023/02/20 04:35:57;;;;;;;4.30;0.30;;;;;;;-142.37;100.00;59669.53;5095629;28;20495;-61
2023/02/20 04:38:23;;;;;;;9.15;0.52;;;;;;;-142.37;100.00;59669.53;5094974;28;20399;-62
2023/02/20 04:40:49;;;;;;;12.43;0.68;;;;;;;-142.37;100.00;59669.53;5094979;28;20113;-62
2023/02/20 04:43:15;;;;;;;15.75;0.70;;;;;;;-142.37;100.00;59669.53;5096030;28;20031;-59
2023/02/20 04:45:41;;;;;;;7.88;0.55;;;;;;;-142.37;100.00;59669.53;5094607;28;20024;-60
2023/02/20 04:48:07;;;;;;;3.03;0.47;;;;;;;-142.37;100.00;59669.53;5094937;28;20031;-60
2023/02/20 04:50:34;;;;;;;6.65;0.50;;;;;;;-142.37;100.00;59669.53;5094591;28;20516;-61
2023/02/20 04:53:00;;;;;;;10.85;0.43;;;;;;;-142.37;100.00;59669.53;5094525;28;20136;-60
2023/02/20 04:55:27;;;;;;;7.95;0.60;;;;;;;-142.37;100.00;59669.53;5095446;28;20072;-61
2023/02/20 04:57:55;;;;;;;9.73;1.00;;;;;;;-142.37;100.00;59669.53;5095598;28;20028;-60
2023/02/20 05:00:21;;;;;;;3.92;0.40;;;;;;;-142.37;100.00;59669.53;5095663;28;20020;-60
2023/02/20 05:02:48;;;;;;;4.75;1.58;;;;;;;-142.37;100.00;59669.53;5094520;28;20036;-60
2023/02/20 05:05:15;;;;;;;4.55;0.60;;;;;;;-142.37;100.00;59669.53;5095851;28;20020;-61
2023/02/20 05:07:41;;;;;;;3.55;0.50;;;;;;;-142.37;100.00;59669.53;5095614;28;20103;-59
2023/02/20 05:10:07;;;;;;;3.55;0.55;;;;;;;-142.37;100.00;59669.53;5095569;28;20103;-61
2023/02/20 05:12:32;;;;;;;24.80;3.70;;;;;;;-142.37;100.00;59669.53;5095362;28;20020;-61
2023/02/20 05:14:58;;;;;;;0.85;0.38;;;;;;;-142.37;100.00;59669.53;5093757;28;20446;-60
2023/02/20 05:17:24;;;;;;;7.47;0.88;;;;;;;-142.37;100.00;59669.53;5095585;28;20112;-60
2023/02/20 05:19:49;;;;;;;6.07;0.90;;;;;;;-142.37;100.00;59669.53;5095756;28;20031;-61
2023/02/20 05:22:18;;;;;;;9.68;0.90;;;;;;;-142.37;100.00;59669.53;5095144;28;20035;-63
2023/02/20 05:24:45;;;;;;;6.72;0.38;;;;;;;-142.37;100.00;59669.53;5094176;28;20434;-62
2023/02/20 05:27:13;;;;;;;6.82;0.80;;;;;;;-142.37;100.00;59669.53;5095203;28;20027;-61
2023/02/20 05:29:47;;;;;;;4.05;0.50;;;;;;;-142.37;100.00;59669.53;5095512;28;20072;-60
2023/02/20 05:32:15;;;;;;;6.07;0.35;;;;;;;-142.37;100.00;59669.53;5095377;28;20020;-60
2023/02/20 05:34:44;;;;;;;11.23;0.63;;;;;;;-142.37;100.00;59669.53;5095799;28;20031;-61
2023/02/20 05:37:12;;;;;;;5.15;0.55;;;;;;;-142.37;100.00;59669.53;5095126;28;20088;-63
2023/02/20 05:39:37;;;;;;;4.25;0.20;;;;;;;-142.37;100.00;59669.53;5093947;28;20032;-61
2023/02/20 05:42:05;;;;;;;1.33;0.30;;;;;;;-142.37;100.00;59669.53;5094900;28;20084;-61
2023/02/20 05:44:31;;;;;;;2.20;0.50;;;;;;;-142.37;100.00;59669.53;5094057;28;20024;-62
2023/02/20 05:46:57;;;;;;;4.07;0.20;;;;;;;-142.37;100.00;59669.53;5095574;28;20370;-60
2023/02/20 05:49:23;;;;;;;2.42;0.45;;;;;;;-142.37;100.00;59669.53;5095074;28;20384;-61
2023/02/20 05:51:49;;;;;;;2.17;0.17;;;;;;;-142.37;100.00;59669.53;5093402;28;20032;-61
2023/02/20 05:54:16;;;;;;;2.42;0.50;;;;;;;-142.37;100.00;59669.53;5094977;28;20020;-61
2023/02/20 05:56:44;;;;;;;1.15;0.60;;;;;;;-142.37;100.00;59669.53;5093681;28;20036;-62
2023/02/20 05:59:10;;;;;;;0.47;0.10;;;;;;;-142.37;100.00;59669.53;5094758;28;20039;-59
2023/02/20 06:01:36;;;;;;;1.00;0.10;;;;;;;-142.37;100.00;59669.53;5093428;28;20458;-60
2023/02/20 06:04:02;;;;;;;1.60;0.37;;;;;;;-142.37;100.00;59669.53;5094493;28;20058;-59
2023/02/20 06:06:39;;;;;;;2.00;0.50;;;;;;;-142.37;100.00;59669.53;5093908;28;20028;-61
2023/02/20 06:09:07;;;;;;;0.70;0.30;;;;;;;-142.37;100.00;59669.53;5092759;28;20028;-60
2023/02/20 06:11:33;;;;;;;0.80;0.80;;;;;;;-142.37;100.00;59669.53;5093094;28;20031;-60
2023/02/20 06:13:59;;;;;;;3.42;0.30;;;;;;;-142.37;100.00;59669.53;5094255;28;20028;-60
2023/02/20 06:16:26;;;;;;;0.13;0.00;;;;;;;-142.37;100.00;59669.53;5092710;28;20101;-58
2023/02/20 06:18:53;;;;;;;34.47;3.13;;;;;;;-142.37;100.00;59669.53;5092534;28;20027;-61
2023/02/20 06:21:22;;;;;;;5.73;2.20;;;;;;;-142.37;100.00;59669.53;5092098;28;20119;-60
2023/02/20 06:23:48;;;;;;;4.47;0.20;;;;;;;-142.37;100.00;59669.53;5092864;28;20062;-60
2023/02/20 06:26:15;;;;;;;1.57;0.10;;;;;;;-142.37;100.00;59669.53;5093976;28;20036;-60
2023/02/20 06:28:42;;;;;;;0.10;0.07;;;;;;;-142.37;100.00;59669.53;5092361;28;20035;-59
2023/02/20 06:31:10;;;;;;;2.60;0.33;;;;;;;-142.37;100.00;59669.53;5093141;28;20027;-61
2023/02/20 06:33:36;;;;;;;0.43;0.37;;;;;;;-142.37;100.00;59669.53;5093320;28;20465;-61
2023/02/20 06:36:02;;;;;;;0.97;0.40;;;;;;;-142.37;100.00;59669.53;5092268;28;20405;-61
2023/02/20 06:38:28;;;;;;;1.73;0.57;;;;;;;-142.37;100.00;59669.53;5093665;28;20024;-60
2023/02/20 06:40:54;;;;;;;0.80;0.40;;;;;;;-142.37;100.00;59669.53;5091875;28;20031;-59
2023/02/20 06:43:20;;;;;;;2.80;0.37;;;;;;;-142.37;100.00;59669.53;5092475;28;20118;-61
2023/02/20 06:45:46;;;;;;;42.77;2.93;;;;;;;-142.37;100.00;59669.53;5091587;28;20023;-61
2023/02/20 06:48:13;;;;;;;0.53;0.20;;;;;;;-142.37;100.00;59669.53;5092635;28;20028;-63
2023/02/20 06:50:40;;;;;;;2.17;0.27;;;;;;;-142.37;100.00;59669.53;5093303;28;20426;-61
2023/02/20 06:53:06;;;;;;;0.50;0.10;;;;;;;-142.37;100.00;59669.53;5092883;28;20360;-60
2023/02/20 06:55:32;;;;;;;6.63;0.80;;;;;;;-142.37;100.00;59669.53;5092465;28;20045;-61
2023/02/20 06:57:57;;;;;;;3.37;0.93;;;;;;;-142.37;100.00;59669.53;5092470;28;20032;-59
2023/02/20 07:00:23;;;;;;;3.00;0.20;;;;;;;-142.37;100.00;59669.53;5092893;28;20024;-59
2023/02/20 07:02:49;;;;;;;4.97;1.07;;;;;;;-142.37;100.00;59669.53;5092228;28;20032;-60
2023/02/20 07:05:15;;;;;;;3.83;0.40;;;;;;;-142.37;100.00;59669.53;5092244;28;20503;-61
2023/02/20 07:07:41;;;;;;;9.93;0.57;;;;;;;-142.37;100.00;59669.53;5090768;28;20507;-60
2023/02/20 07:10:07;;;;;;;5.20;0.87;;;;;;;-142.37;100.00;59669.53;5090234;28;20032;-61
2023/02/20 07:12:36;;;;;;;0.75;0.43;;;;;;;-142.37;100.00;59669.53;5092669;28;20039;-62
2023/02/20 07:15:03;;;;;;;3.60;0.70;;;;;;;-142.37;100.00;59669.53;5092892;28;20032;-61
2023/02/20 07:17:30;;;;;;;5.00;0.70;;;;;;;-142.37;100.00;59669.53;5091370;28;20028;-60
2023/02/20 07:19:56;;;;;;;0.10;0.10;;;;;;;-142.37;100.00;59669.53;5092485;28;20036;-60
2023/02/20 07:22:21;;;;;;;2.10;0.50;;;;;;;-142.37;100.00;59669.53;5090538;28;20045;-60
2023/02/20 07:24:54;;;;;;;2.67;0.70;;;;;;;-142.37;100.00;59669.53;5092167;28;20052;-58
2023/02/20 07:27:20;;;;;;;1.80;0.45;;;;;;;-142.37;100.00;59669.53;5091048;28;20059;-58
2023/02/20 07:29:47;;;;;;;14.33;1.33;;;;;;;-142.37;100.00;59669.53;5091527;28;20350;-58
2023/02/20 07:32:14;;;;;;;6.72;0.70;;;;;;;-142.37;100.00;59669.53;5090513;28;20468;-59
2023/02/20 07:34:40;;;;;;;1.65;0.57;;;;;;;-142.37;100.00;59669.53;5091870;28;20051;-60
2023/02/20 07:37:06;;;;;;;3.22;0.50;;;;;;;-142.37;100.00;59669.53;5090056;28;20024;-60
2023/02/20 07:39:32;;;;;;;3.60;0.50;;;;;;;-142.37;100.00;59669.53;5089867;28;20142;-60
2023/02/20 07:41:58;;;;;;;9.30;0.95;;;;;;;-142.37;100.00;59669.53;5089389;28;20495;-60
2023/02/20 07:44:23;;;;;;;5.60;0.63;;;;;;;-142.37;100.00;59669.53;5089436;28;20024;-59
2023/02/20 07:46:49;;;;;;;4.07;1.08;;;;;;;-142.37;100.00;59669.53;5089851;28;20389;-61
2023/02/20 07:49:15;;;;;;;0.70;0.38;;;;;;;-142.37;100.00;59669.53;5091218;28;20464;-59
2023/02/20 07:51:40;;;;;;;1.70;0.50;;;;;;;-142.37;100.00;59669.53;5090693;28;20388;-59
2023/02/20 07:54:06;;;;;;;0.17;0.05;;;;;;;-142.37;100.00;59669.53;5089964;28;20024;-60
2023/02/20 07:56:32;;;;;;;0.13;0.13;;;;;;;-142.37;100.00;59669.53;5088620;28;20032;-60
2023/02/20 07:58:58;;;;;;;0.95;0.20;;;;;;;-142.37;100.00;59669.53;5090178;28;20395;-58
2023/02/20 08:01:24;;;;;;;0.55;0.30;;;;;;;-142.37;100.00;59669.53;5089122;28;20116;-58
2023/02/20 08:03:49;;;;;;;0.25;0.03;;;;;;;-142.37;100.00;59669.53;5091048;28;20473;-61
2023/02/20 08:06:17;;;;;;;1.35;0.00;;;;;;;-142.37;100.00;59669.53;5090913;28;20028;-60
2023/02/20 08:08:50;;;;;;;0.55;0.00;;;;;;;-142.37;100.00;59669.53;5091300;28;20032;-61
2023/02/20 08:11:20;;;;;;;1.00;0.10;;;;;;;-142.37;100.00;59669.53;5089791;28;20471;-62
2023/02/20 08:13:46;;;;;;;0.00;0.00;;;;;;;-142.37;100.00;59669.53;5090425;28;20156;-60
2023/02/20 08:16:12;;;;;;;0.00;0.00;;;;;;;-142.37;100.00;59669.53;5090207;28;20081;-59
2023/02/20 08:18:38;;;;;;;0.82;0.82;;;;;;;-142.37;100.00;59669.53;5089950;28;20426;-62
2023/02/20 08:21:04;;;;;;;0.13;0.00;;;;;;;-142.37;100.00;59669.53;5091695;28;20494;-60
2023/02/20 08:23:30;;;;;;;0.00;0.00;;;;;;;-142.37;100.00;59669.53;5091208;28;20472;-61
2023/02/20 08:25:55;;;;;;;0.35;0.00;;;;;;;-142.37;100.00;59669.53;5091444;28;20032;-60
2023/02/20 08:28:21;;;;;;;0.00;0.00;;;;;;;-142.37;100.00;59669.53;5090102;28;20468;-59
2023/02/20 08:30:47;;;;;;;0.65;0.03;;;;;;;-142.37;100.00;59669.53;5090006;28;20115;-60
2023/02/20 08:33:14;;;;;;;0.88;0.00;;;;;;;-142.37;100.00;59669.53;5090764;28;20032;-56
2023/02/20 08:35:40;;;;;;;0.08;0.08;;;;;;;-142.37;100.00;59669.53;5089968;28;20032;-56
2023/02/20 08:38:21;;;;;;;1.45;0.15;;;;;;;-142.37;100.00;59669.53;5089606;28;20438;-55
2023/02/20 08:40:47;;;;;;;0.43;0.00;;;;;;;-142.37;100.00;59669.53;5090909;28;20024;-55
2023/02/20 08:43:13;;;;;;;0.40;0.08;;;;;;;-142.37;100.00;59669.53;5089132;28;20101;-55
2023/02/20 08:45:38;;;;;;;0.00;0.00;;;;;;;-142.37;100.00;59669.53;5090946;28;20091;-57
2023/02/20 08:48:04;;;;;;;1.50;0.00;;;;;;;-142.37;100.00;59669.53;5090625;28;20082;-55
2023/02/20 08:50:30;;;;;;;0.10;0.00;;;;;;;-142.37;100.00;59669.53;5090949;28;20039;-60
2023/02/20 08:52:55;;;;;;;0.10;0.10;;;;;;;-142.37;100.00;59669.53;5090752;28;20109;-58
2023/02/20 08:55:21;;;;;;;0.40;0.00;;;;;;;-142.37;100.00;59669.53;5093498;28;20028;-56
2023/02/20 08:57:47;;;;;;;0.82;0.00;;;;;;;-142.37;100.00;59669.53;5094683;28;20089;-54
2023/02/20 09:00:15;;;;;;;0.05;0.05;;;;;;;-142.37;100.00;59669.53;5094777;28;20358;-56
2023/02/20 09:02:41;;;;;;;4.95;2.30;;;;;;;-142.37;100.00;59669.53;5094847;28;20445;-57
2023/02/20 09:05:07;;;;;;;1.30;0.00;;;;;;;-142.37;100.00;59669.53;5094323;28;20077;-54
2023/02/20 09:07:33;;;;;;;0.00;0.00;;;;;;;-142.37;100.00;59669.53;5094325;28;20465;-55
2023/02/20 09:09:58;;;;;;;0.00;0.00;;;;;;;-142.37;100.00;59669.53;5092674;28;20089;-55
2023/02/20 09:12:24;;;;;;;0.20;0.00;;;;;;;-142.37;100.00;59669.53;5094023;28;20139;-55
2023/02/20 09:14:50;;;;;;;0.00;0.00;;;;;;;-142.37;100.00;59669.53;5094358;28;20034;-58
2023/02/20 09:17:17;;;;;;;0.20;0.00;;;;;;;-142.37;100.00;59669.53;5093610;28;20052;-54
2023/02/20 09:19:43;;;;;;;0.50;0.10;;;;;;;-142.37;100.00;59669.53;5092916;28;20020;-56
2023/02/20 09:22:09;;;;;;;0.00;0.00;;;;;;;-142.37;100.00;59669.53;5093578;28;20081;-56
2023/02/20 09:24:35;;;;;;;0.80;0.65;;;;;;;-142.37;100.00;59669.53;5092431;28;20042;-57
2023/02/20 09:27:03;;;;;;;1.45;0.00;;;;;;;-142.37;100.00;59669.53;5094621;28;20020;-58
2023/02/20 09:29:29;;;;;;;2.05;0.25;;;;;;;-142.37;100.00;59669.53;5094333;28;20039;-58
2023/02/20 09:31:55;;;;;;;3.22;0.10;;;;;;;-142.37;100.00;59669.53;5094288;28;20487;-60
2023/02/20 09:34:21;;;;;;;1.35;0.00;;;;;;;-142.37;100.00;59669.53;5094153;28;20392;-59
2023/02/20 09:36:47;;;;;;;0.00;0.00;;;;;;;-142.37;100.00;59669.53;5093784;28;20101;-60
2023/02/20 09:39:16;;;;;;;0.00;0.00;;;;;;;-142.37;100.00;59669.53;5092241;28;20056;-61
2023/02/20 09:41:57;;;;;;;0.00;0.00;;;;;;;-142.37;100.00;59669.53;5092717;28;20035;-61
2023/02/20 09:44:32;;;;;;;0.00;0.00;;;;;;;-142.37;100.00;59669.53;5092539;28;20032;-61
2023/02/20 09:47:18;;;;;;;0.10;0.00;;;;;;;-142.37;100.00;59669.53;5093440;28;20031;-61
2023/02/20 09:49:44;;;;;;;0.05;0.00;;;;;;;-142.37;100.00;59669.53;5092813;28;20036;-63
2023/02/20 09:52:13;;;;;;;0.00;0.00;;;;;;;-142.37;100.00;59669.53;5094049;28;20101;-61
2023/02/20 09:55:02;;;;;;;0.50;0.10;;;;;;;-142.37;100.00;59669.53;5092250;28;20126;-60
2023/02/20 09:57:29;;;;;;;0.32;0.00;;;;;;;-142.37;100.00;59669.53;5093446;28;20024;-61
2023/02/20 10:00:05;;;;;;;0.32;0.00;;;;;;;-142.37;100.00;59669.53;5093261;28;20032;-59
2023/02/20 10:02:52;;;;;;;0.10;0.00;;;;;;;-142.37;100.00;59669.53;5093646;28;20065;-60
2023/02/20 10:05:26;;;;;;;0.20;0.00;;;;;;;-142.37;100.00;59669.53;5090738;28;20032;-62
2023/02/20 10:07:52;;;;;;;0.30;0.00;;;;;;;-142.37;100.00;59669.53;5093380;28;20032;-62
2023/02/20 10:10:27;;;;;;;0.00;0.00;;;;;;;-142.37;100.00;59669.53;5093909;28;20032;-61
2023/02/20 10:13:46;;;;;;;0.38;0.15;;;;;;;-142.37;100.00;59669.53;5092125;28;20024;-59
2023/02/20 10:16:32;;;;;;;0.20;0.17;;;;;;;-142.37;100.00;59669.53;5013626;28;20057;-62
2023/02/20 10:19:13;;;;;;;0.00;0.00;;;;;;;-142.37;100.00;59669.53;5030692;28;20134;-60
2023/02/20 10:21:48;;;;;;;0.00;0.00;;;;;;;-142.37;100.00;59669.53;5080259;28;20040;-60
2023/02/20 10:24:32;;;;;;;;;;;;;;;-142.37;100.00;59669.53;5092615;28;20028;-60
2023/02/20 10:27:15;;;;;;;0.00;0.00;;;;;;;-142.37;100.00;59669.53;5092448;28;20349;-60
2023/02/20 10:29:44;;;;;;;0.00;0.00;;;;;;;-142.37;100.00;59669.53;5092781;28;20034;-60
2023/02/20 10:32:19;;;;;;;0.52;0.52;;;;;;;-142.37;100.00;59669.53;5093240;28;20151;-60
2023/02/20 10:35:03;;;;;;;0.00;0.00;;;;;;;-142.37;100.00;59669.53;5093265;28;20066;-60
2023/02/20 10:37:38;;;;;;;0.00;0.00;;;;;;;-142.37;100.00;59669.53;5092866;28;20531;-59
2023/02/20 10:40:16;;;;;;;0.00;0.00;;;;;;;-142.37;100.00;59669.53;5092119;28;20495;-59
2023/02/20 10:43:27;;;;;;;0.15;0.15;;;;;;;-142.37;100.00;59669.53;5092330;28;20036;-60
2023/02/20 10:46:03;;;;;;;0.00;0.00;;;;;;;-142.37;100.00;59669.53;5012609;28;20125;-59
2023/02/20 10:48:33;;;;;;;0.00;0.00;;;;;;;-142.37;100.00;59669.53;5087417;28;20071;-60
2023/02/20 10:51:08;;;;;;;3.08;1.10;;;;;;;-142.37;100.00;59669.53;5091728;28;20115;-61
2023/02/20 10:53:45;;;;;;;5.47;1.42;;;;;;;-142.37;100.00;59669.53;5091706;28;20020;-60
2023/02/20 10:56:30;;;;;;;2.72;1.10;;;;;;;-142.37;100.00;59669.53;5090035;28;20127;-60
2023/02/20 10:59:23;;;;;;;8.18;0.95;;;;;;;-142.37;100.00;59669.53;5090457;28;20107;-60
2023/02/20 11:01:53;;;;;;;13.80;3.42;;;;;;;-142.37;100.00;59669.53;5091688;28;20369;-59
2023/02/20 11:04:27;;;;;;;4.60;0.93;;;;;;;-142.37;100.00;59669.53;5091636;28;20059;-59
2023/02/20 11:06:57;;;;;;;7.50;0.63;;;;;;;-142.37;100.00;59669.53;5090016;28;20032;-59
2023/02/20 11:09:24;;;;;;;1.60;1.23;;;;;;;-142.37;100.00;59669.53;5091802;28;20063;-60
2023/02/20 11:11:53;;;;;;;6.53;1.27;;;;;;;-142.37;100.00;59669.53;5091403;28;20028;-60
2023/02/20 11:14:24;;;;;;;12.10;1.80;;;;;;;-142.37;100.00;59669.53;5090333;28;20108;-59
2023/02/20 11:16:58;;;;;;;6.43;1.60;;;;;;;-142.37;100.00;59669.53;5089753;28;20047;-60
2023/02/20 11:19:30;;;;;;;6.53;2.05;;;;;;;-142.37;100.00;59669.53;5090197;28;20429;-59
2023/02/20 11:21:56;;;;;;;33.83;8.13;;;;;;;-142.37;100.00;59669.53;5091501;28;20036;-60
2023/02/20 11:24:35;;;;;;;7.75;2.40;;;;;;;-142.37;100.00;59669.53;5091182;28;20028;-59
2023/02/20 11:27:14;;;;;;;7.88;2.50;;;;;;;-142.37;100.00;59669.53;5091203;28;20098;-58
2023/02/20 11:29:47;;;;;;;2.03;0.93;;;;;;;-142.37;100.00;59669.53;5090082;28;20020;-60
2023/02/20 11:32:37;;;;;;;5.20;1.92;;;;;;;-142.37;100.00;59669.53;5089985;28;20116;-60
2023/02/20 11:35:18;;;;;;;9.75;2.75;;;;;;;-142.37;100.00;59669.53;5089391;28;20030;-58
2023/02/20 11:37:46;;;;;;;6.57;2.15;;;;;;;-142.37;100.00;59669.53;5090122;28;20085;-59